sensor_id;sensor_type;location;lat;lon;timestamp;pressure;altitude;pressure_sealevel;temperature;humidity
55916;BME280;41826;53.246;-6.670;2023-07-22T00:00:02;101442.88;;;13.77;100.00
55916;BME280;41826;53.246;-6.670;2023-07-22T00:02:31;101441.19;;;13.86;100.00
55916;BME280;41826;53.246;-6.670;2023-07-22T00:04:56;101408.38;;;13.61;100.00
55916;BME280;41826;53.246;-6.670;2023-07-22T00:07:22;101416.69;;;13.66;100.00
55916;BME280;41826;53.246;-6.670;2023-07-22T00:09:47;101425.97;;;13.42;100.00
55916;BME280;41826;53.246;-6.670;2023-07-22T00:12:15;101430.13;;;13.35;100.00
55916;BME280;41826;53.246;-6.670;2023-07-22T00:14:41;101457.22;;;13.37;100.00
55916;BME280;41826;53.246;-6.670;2023-07-22T00:17:06;101485.31;;;13.56;100.00
55916;BME280;41826;53.246;-6.670;2023-07-22T00:19:32;101489.53;;;13.39;100.00
55916;BME280;41826;53.246;-6.670;2023-07-22T00:21:59;101553.69;;;13.40;100.00
55916;BME280;41826;53.246;-6.670;2023-07-22T00:24:24;101588.06;;;13.68;100.00
55916;BME280;41826;53.246;-6.670;2023-07-22T00:26:50;101587.91;;;13.69;100.00
55916;BME280;41826;53.246;-6.670;2023-07-22T00:29:18;101594.88;;;13.60;100.00
55916;BME280;41826;53.246;-6.670;2023-07-22T00:31:46;101603.09;;;13.48;100.00
55916;BME280;41826;53.246;-6.670;2023-07-22T00:34:11;101642.78;;;13.56;100.00
55916;BME280;41826;53.246;-6.670;2023-07-22T00:36:40;100690.19;;;13.51;100.00
55916;BME280;41826;53.246;-6.670;2023-07-22T00:39:05;100728.25;;;13.64;100.00
55916;BME280;41826;53.246;-6.670;2023-07-22T00:41:31;100747.56;;;13.65;100.00
55916;BME280;41826;53.246;-6.670;2023-07-22T00:43:56;100759.44;;;13.77;100.00
55916;BME280;41826;53.246;-6.670;2023-07-22T00:46:22;100764.91;;;13.68;100.00
55916;BME280;41826;53.246;-6.670;2023-07-22T00:48:48;100764.03;;;13.51;100.00
55916;BME280;41826;53.246;-6.670;2023-07-22T00:51:15;100764.16;;;13.41;100.00
55916;BME280;41826;53.246;-6.670;2023-07-22T00:53:40;100758.44;;;13.62;100.00
55916;BME280;41826;53.246;-6.670;2023-07-22T00:56:08;100722.50;;;13.53;100.00
55916;BME280;41826;53.246;-6.670;2023-07-22T00:58:34;100726.28;;;13.50;100.00
55916;BME280;41826;53.246;-6.670;2023-07-22T01:01:01;100750.84;;;13.59;100.00
55916;BME280;41826;53.246;-6.670;2023-07-22T01:03:27;100738.94;;;13.38;100.00
55916;BME280;41826;53.246;-6.670;2023-07-22T01:05:53;100720.19;;;13.50;100.00
55916;BME280;41826;53.246;-6.670;2023-07-22T01:08:20;100711.28;;;13.67;100.00
55916;BME280;41826;53.246;-6.670;2023-07-22T01:10:48;100721.88;;;13.75;100.00
55916;BME280;41826;53.246;-6.670;2023-07-22T01:13:13;100710.31;;;13.60;100.00
55916;BME280;41826;53.246;-6.670;2023-07-22T01:15:38;100705.00;;;13.43;100.00
55916;BME280;41826;53.246;-6.670;2023-07-22T01:18:04;100711.13;;;13.60;100.00
55916;BME280;41826;53.246;-6.670;2023-07-22T01:20:30;100695.97;;;13.71;100.00
55916;BME280;41826;53.246;-6.670;2023-07-22T01:22:56;100705.03;;;13.60;100.00
55916;BME280;41826;53.246;-6.670;2023-07-22T01:25:22;100696.78;;;13.71;100.00
55916;BME280;41826;53.246;-6.670;2023-07-22T01:27:50;100696.28;;;13.59;100.00
55916;BME280;41826;53.246;-6.670;2023-07-22T01:30:16;100692.31;;;13.72;100.00
55916;BME280;41826;53.246;-6.670;2023-07-22T01:32:42;100691.03;;;13.76;100.00
55916;BME280;41826;53.246;-6.670;2023-07-22T01:35:08;100697.94;;;13.77;100.00
55916;BME280;41826;53.246;-6.670;2023-07-22T01:37:34;100702.72;;;13.65;100.00
55916;BME280;41826;53.246;-6.670;2023-07-22T01:39:59;100686.56;;;13.76;100.00
55916;BME280;41826;53.246;-6.670;2023-07-22T01:42:25;100675.16;;;13.51;100.00
55916;BME280;41826;53.246;-6.670;2023-07-22T01:44:50;100680.09;;;13.54;100.00
55916;BME280;41826;53.246;-6.670;2023-07-22T01:47:16;100661.50;;;13.72;100.00
55916;BME280;41826;53.246;-6.670;2023-07-22T01:49:48;100658.69;;;13.74;100.00
55916;BME280;41826;53.246;-6.670;2023-07-22T01:52:14;100648.50;;;13.62;100.00
55916;BME280;41826;53.246;-6.670;2023-07-22T01:54:39;100646.34;;;13.58;100.00
55916;BME280;41826;53.246;-6.670;2023-07-22T01:57:05;100622.41;;;13.51;100.00
55916;BME280;41826;53.246;-6.670;2023-07-22T01:59:30;100615.66;;;13.57;100.00
55916;BME280;41826;53.246;-6.670;2023-07-22T02:01:55;100617.31;;;13.74;100.00
55916;BME280;41826;53.246;-6.670;2023-07-22T02:04:21;100599.19;;;13.63;100.00
55916;BME280;41826;53.246;-6.670;2023-07-22T02:06:46;100605.09;;;13.57;100.00
55916;BME280;41826;53.246;-6.670;2023-07-22T02:09:12;100612.38;;;13.55;100.00
55916;BME280;41826;53.246;-6.670;2023-07-22T02:11:39;100590.13;;;13.57;100.00
55916;BME280;41826;53.246;-6.670;2023-07-22T02:14:04;100592.91;;;13.64;100.00
55916;BME280;41826;53.246;-6.670;2023-07-22T02:16:34;100595.72;;;13.54;100.00
55916;BME280;41826;53.246;-6.670;2023-07-22T02:19:00;100575.94;;;13.34;100.00
55916;BME280;41826;53.246;-6.670;2023-07-22T02:21:26;100577.13;;;13.39;100.00
55916;BME280;41826;53.246;-6.670;2023-07-22T02:23:51;100586.97;;;13.54;100.00
55916;BME280;41826;53.246;-6.670;2023-07-22T02:26:16;100531.78;;;13.36;100.00
55916;BME280;41826;53.246;-6.670;2023-07-22T02:28:42;100516.44;;;13.56;100.00
55916;BME280;41826;53.246;-6.670;2023-07-22T02:31:08;100505.38;;;13.60;100.00
55916;BME280;41826;53.246;-6.670;2023-07-22T02:33:34;100505.03;;;13.72;100.00
55916;BME280;41826;53.246;-6.670;2023-07-22T02:35:59;100508.81;;;13.69;100.00
55916;BME280;41826;53.246;-6.670;2023-07-22T02:38:27;100511.91;;;13.89;100.00
55916;BME280;41826;53.246;-6.670;2023-07-22T02:40:52;100524.78;;;13.84;100.00
55916;BME280;41826;53.246;-6.670;2023-07-22T02:43:18;100528.75;;;13.88;100.00
55916;BME280;41826;53.246;-6.670;2023-07-22T02:45:43;100534.16;;;14.03;100.00
55916;BME280;41826;53.246;-6.670;2023-07-22T02:48:09;100534.31;;;14.01;100.00
55916;BME280;41826;53.246;-6.670;2023-07-22T02:50:34;100550.66;;;13.88;100.00
55916;BME280;41826;53.246;-6.670;2023-07-22T02:53:00;100536.16;;;13.84;100.00
55916;BME280;41826;53.246;-6.670;2023-07-22T02:55:25;100531.56;;;13.78;100.00
55916;BME280;41826;53.246;-6.670;2023-07-22T02:57:51;100530.75;;;13.78;100.00
55916;BME280;41826;53.246;-6.670;2023-07-22T03:00:18;100529.25;;;13.83;100.00
55916;BME280;41826;53.246;-6.670;2023-07-22T03:02:49;100533.84;;;13.90;100.00
55916;BME280;41826;53.246;-6.670;2023-07-22T03:05:15;100527.75;;;13.81;100.00
55916;BME280;41826;53.246;-6.670;2023-07-22T03:07:40;100524.31;;;13.72;100.00
55916;BME280;41826;53.246;-6.670;2023-07-22T03:10:06;100515.22;;;13.83;100.00
55916;BME280;41826;53.246;-6.670;2023-07-22T03:12:35;100503.84;;;13.74;100.00
55916;BME280;41826;53.246;-6.670;2023-07-22T03:15:01;100503.19;;;13.72;100.00
55916;BME280;41826;53.246;-6.670;2023-07-22T03:17:29;100498.25;;;13.85;100.00
55916;BME280;41826;53.246;-6.670;2023-07-22T03:19:55;100504.50;;;13.84;100.00
55916;BME280;41826;53.246;-6.670;2023-07-22T03:22:20;100496.59;;;13.76;100.00
55916;BME280;41826;53.246;-6.670;2023-07-22T03:24:45;100476.34;;;13.69;100.00
55916;BME280;41826;53.246;-6.670;2023-07-22T03:27:11;100475.16;;;13.87;100.00
55916;BME280;41826;53.246;-6.670;2023-07-22T03:29:38;100475.66;;;13.83;100.00
55916;BME280;41826;53.246;-6.670;2023-07-22T03:32:03;100475.34;;;13.78;100.00
55916;BME280;41826;53.246;-6.670;2023-07-22T03:34:30;100471.84;;;13.85;100.00
55916;BME280;41826;53.246;-6.670;2023-07-22T03:36:55;100464.91;;;13.84;100.00
55916;BME280;41826;53.246;-6.670;2023-07-22T03:39:21;100454.34;;;13.84;100.00
55916;BME280;41826;53.246;-6.670;2023-07-22T03:41:46;100460.31;;;13.78;100.00
55916;BME280;41826;53.246;-6.670;2023-07-22T03:44:12;100447.13;;;13.78;100.00
55916;BME280;41826;53.246;-6.670;2023-07-22T03:46:37;100444.81;;;13.83;100.00
55916;BME280;41826;53.246;-6.670;2023-07-22T03:49:03;100442.47;;;13.88;100.00
55916;BME280;41826;53.246;-6.670;2023-07-22T03:51:28;100432.75;;;13.89;100.00
55916;BME280;41826;53.246;-6.670;2023-07-22T03:53:57;100437.84;;;13.91;100.00
55916;BME280;41826;53.246;-6.670;2023-07-22T03:56:22;100428.94;;;13.92;100.00
55916;BME280;41826;53.246;-6.670;2023-07-22T03:58:49;100458.28;;;13.97;100.00
55916;BME280;41826;53.246;-6.670;2023-07-22T04:01:15;100447.38;;;14.00;100.00
55916;BME280;41826;53.246;-6.670;2023-07-22T04:03:40;100433.19;;;14.01;100.00
55916;BME280;41826;53.246;-6.670;2023-07-22T04:06:05;100431.41;;;13.93;100.00
55916;BME280;41826;53.246;-6.670;2023-07-22T04:08:31;100417.91;;;13.88;100.00
55916;BME280;41826;53.246;-6.670;2023-07-22T04:10:57;100416.75;;;13.91;100.00
55916;BME280;41826;53.246;-6.670;2023-07-22T04:13:24;100415.94;;;13.90;100.00
55916;BME280;41826;53.246;-6.670;2023-07-22T04:15:49;100412.13;;;13.93;100.00
55916;BME280;41826;53.246;-6.670;2023-07-22T04:18:16;100399.56;;;13.95;100.00
55916;BME280;41826;53.246;-6.670;2023-07-22T04:20:42;100439.50;;;13.92;100.00
55916;BME280;41826;53.246;-6.670;2023-07-22T04:23:13;100413.16;;;13.83;100.00
55916;BME280;41826;53.246;-6.670;2023-07-22T04:25:41;100399.91;;;13.92;100.00
55916;BME280;41826;53.246;-6.670;2023-07-22T04:28:07;100372.53;;;13.93;100.00
55916;BME280;41826;53.246;-6.670;2023-07-22T04:30:33;100369.03;;;14.00;100.00
55916;BME280;41826;53.246;-6.670;2023-07-22T04:32:58;100363.09;;;13.98;100.00
55916;BME280;41826;53.246;-6.670;2023-07-22T04:35:26;100375.00;;;13.94;100.00
55916;BME280;41826;53.246;-6.670;2023-07-22T04:37:51;100369.53;;;13.96;100.00
55916;BME280;41826;53.246;-6.670;2023-07-22T04:40:17;100370.31;;;14.04;100.00
55916;BME280;41826;53.246;-6.670;2023-07-22T04:42:44;100365.16;;;14.11;100.00
55916;BME280;41826;53.246;-6.670;2023-07-22T04:45:10;100352.94;;;14.10;100.00
55916;BME280;41826;53.246;-6.670;2023-07-22T04:47:37;100358.34;;;14.17;100.00
55916;BME280;41826;53.246;-6.670;2023-07-22T04:50:04;100376.38;;;14.13;100.00
55916;BME280;41826;53.246;-6.670;2023-07-22T04:52:31;100370.31;;;14.04;100.00
55916;BME280;41826;53.246;-6.670;2023-07-22T04:54:57;100357.41;;;14.09;100.00
55916;BME280;41826;53.246;-6.670;2023-07-22T04:57:22;100359.19;;;14.17;100.00
55916;BME280;41826;53.246;-6.670;2023-07-22T04:59:47;100373.09;;;14.11;100.00
55916;BME280;41826;53.246;-6.670;2023-07-22T05:02:13;100366.44;;;14.15;100.00
55916;BME280;41826;53.246;-6.670;2023-07-22T05:04:40;100373.03;;;14.19;100.00
55916;BME280;41826;53.246;-6.670;2023-07-22T05:07:06;100371.03;;;14.21;100.00
55916;BME280;41826;53.246;-6.670;2023-07-22T05:09:31;100364.09;;;14.20;100.00
55916;BME280;41826;53.246;-6.670;2023-07-22T05:11:57;100373.91;;;14.12;100.00
55916;BME280;41826;53.246;-6.670;2023-07-22T05:14:22;100354.97;;;14.08;100.00
55916;BME280;41826;53.246;-6.670;2023-07-22T05:16:48;100356.25;;;14.12;100.00
55916;BME280;41826;53.246;-6.670;2023-07-22T05:19:13;100334.75;;;14.15;100.00
55916;BME280;41826;53.246;-6.670;2023-07-22T05:21:44;100335.78;;;14.14;100.00
55916;BME280;41826;53.246;-6.670;2023-07-22T05:24:09;100336.22;;;14.18;100.00
55916;BME280;41826;53.246;-6.670;2023-07-22T05:26:34;100335.47;;;14.09;100.00
55916;BME280;41826;53.246;-6.670;2023-07-22T05:29:00;100317.81;;;14.09;100.00
55916;BME280;41826;53.246;-6.670;2023-07-22T05:31:25;100317.94;;;14.16;100.00
55916;BME280;41826;53.246;-6.670;2023-07-22T05:33:50;100316.13;;;14.17;100.00
55916;BME280;41826;53.246;-6.670;2023-07-22T05:36:16;100300.50;;;14.07;100.00
55916;BME280;41826;53.246;-6.670;2023-07-22T05:38:41;100286.78;;;14.12;100.00
55916;BME280;41826;53.246;-6.670;2023-07-22T05:41:07;100274.69;;;14.17;100.00
55916;BME280;41826;53.246;-6.670;2023-07-22T05:43:32;100257.53;;;14.21;100.00
55916;BME280;41826;53.246;-6.670;2023-07-22T05:45:57;100270.47;;;14.31;100.00
55916;BME280;41826;53.246;-6.670;2023-07-22T05:48:43;100272.47;;;14.29;100.00
55916;BME280;41826;53.246;-6.670;2023-07-22T05:51:09;100256.16;;;14.25;100.00
55916;BME280;41826;53.246;-6.670;2023-07-22T05:53:34;100263.38;;;14.31;100.00
55916;BME280;41826;53.246;-6.670;2023-07-22T05:56:00;100252.63;;;14.33;100.00
55916;BME280;41826;53.246;-6.670;2023-07-22T05:58:25;100244.16;;;14.38;100.00
55916;BME280;41826;53.246;-6.670;2023-07-22T06:00:51;100254.03;;;14.44;100.00
55916;BME280;41826;53.246;-6.670;2023-07-22T06:03:17;100251.19;;;14.45;100.00
55916;BME280;41826;53.246;-6.670;2023-07-22T06:05:42;100250.66;;;14.50;100.00
55916;BME280;41826;53.246;-6.670;2023-07-22T06:08:08;100230.53;;;14.49;100.00
55916;BME280;41826;53.246;-6.670;2023-07-22T06:10:34;100238.44;;;14.49;100.00
55916;BME280;41826;53.246;-6.670;2023-07-22T06:12:59;100232.16;;;14.50;100.00
55916;BME280;41826;53.246;-6.670;2023-07-22T06:15:24;100241.53;;;14.52;100.00
55916;BME280;41826;53.246;-6.670;2023-07-22T06:17:50;100238.75;;;14.54;100.00
55916;BME280;41826;53.246;-6.670;2023-07-22T06:20:15;100234.13;;;14.56;100.00
55916;BME280;41826;53.246;-6.670;2023-07-22T06:22:40;100219.53;;;14.60;100.00
55916;BME280;41826;53.246;-6.670;2023-07-22T06:25:06;100214.53;;;14.65;100.00
55916;BME280;41826;53.246;-6.670;2023-07-22T06:27:33;100212.91;;;14.64;100.00
55916;BME280;41826;53.246;-6.670;2023-07-22T06:29:58;100217.44;;;14.70;100.00
55916;BME280;41826;53.246;-6.670;2023-07-22T06:32:25;100214.25;;;14.75;100.00
55916;BME280;41826;53.246;-6.670;2023-07-22T06:34:55;100216.53;;;14.78;100.00
55916;BME280;41826;53.246;-6.670;2023-07-22T06:37:29;100208.97;;;14.75;100.00
55916;BME280;41826;53.246;-6.670;2023-07-22T06:39:55;100202.78;;;14.83;100.00
55916;BME280;41826;53.246;-6.670;2023-07-22T06:42:20;100186.75;;;14.84;100.00
55916;BME280;41826;53.246;-6.670;2023-07-22T06:44:45;100201.41;;;14.87;100.00
55916;BME280;41826;53.246;-6.670;2023-07-22T06:47:11;100185.81;;;14.92;100.00
55916;BME280;41826;53.246;-6.670;2023-07-22T06:49:36;100185.88;;;14.99;100.00
55916;BME280;41826;53.246;-6.670;2023-07-22T06:52:02;100184.25;;;14.98;100.00
55916;BME280;41826;53.246;-6.670;2023-07-22T06:54:28;100192.19;;;14.98;100.00
55916;BME280;41826;53.246;-6.670;2023-07-22T06:57:02;100192.63;;;15.01;100.00
55916;BME280;41826;53.246;-6.670;2023-07-22T06:59:34;100195.53;;;15.06;100.00
55916;BME280;41826;53.246;-6.670;2023-07-22T07:01:59;100203.28;;;15.08;100.00
55916;BME280;41826;53.246;-6.670;2023-07-22T07:04:27;100232.28;;;15.16;100.00
55916;BME280;41826;53.246;-6.670;2023-07-22T07:06:54;100214.84;;;15.22;100.00
55916;BME280;41826;53.246;-6.670;2023-07-22T07:09:19;100212.84;;;15.24;100.00
55916;BME280;41826;53.246;-6.670;2023-07-22T07:11:45;100206.19;;;15.28;100.00
55916;BME280;41826;53.246;-6.670;2023-07-22T07:14:10;100206.72;;;15.23;100.00
55916;BME280;41826;53.246;-6.670;2023-07-22T07:16:35;100197.59;;;15.26;100.00
55916;BME280;41826;53.246;-6.670;2023-07-22T07:19:01;100203.78;;;15.33;100.00
55916;BME280;41826;53.246;-6.670;2023-07-22T07:21:27;100209.16;;;15.39;100.00
55916;BME280;41826;53.246;-6.670;2023-07-22T07:23:54;100209.16;;;15.39;100.00
55916;BME280;41826;53.246;-6.670;2023-07-22T07:26:20;100209.44;;;15.45;100.00
55916;BME280;41826;53.246;-6.670;2023-07-22T07:28:47;100203.41;;;15.36;100.00
55916;BME280;41826;53.246;-6.670;2023-07-22T07:31:12;100188.69;;;15.48;100.00
55916;BME280;41826;53.246;-6.670;2023-07-22T07:33:38;100185.09;;;15.56;100.00
55916;BME280;41826;53.246;-6.670;2023-07-22T07:36:04;100187.56;;;15.57;100.00
55916;BME280;41826;53.246;-6.670;2023-07-22T07:38:30;100181.91;;;15.60;100.00
55916;BME280;41826;53.246;-6.670;2023-07-22T07:40:59;100182.53;;;15.63;100.00
55916;BME280;41826;53.246;-6.670;2023-07-22T07:43:25;100186.72;;;15.72;100.00
55916;BME280;41826;53.246;-6.670;2023-07-22T07:46:14;100194.53;;;15.80;100.00
55916;BME280;41826;53.246;-6.670;2023-07-22T07:48:42;100199.84;;;15.80;100.00
55916;BME280;41826;53.246;-6.670;2023-07-22T07:51:09;100197.53;;;15.77;100.00
55916;BME280;41826;53.246;-6.670;2023-07-22T07:53:34;100184.78;;;15.80;100.00
55916;BME280;41826;53.246;-6.670;2023-07-22T07:56:00;100190.47;;;15.84;100.00
55916;BME280;41826;53.246;-6.670;2023-07-22T07:58:25;100187.66;;;15.86;100.00
55916;BME280;41826;53.246;-6.670;2023-07-22T08:00:51;100185.06;;;15.92;100.00
55916;BME280;41826;53.246;-6.670;2023-07-22T08:03:16;100183.03;;;15.94;100.00
55916;BME280;41826;53.246;-6.670;2023-07-22T08:05:41;100185.94;;;15.99;100.00
55916;BME280;41826;53.246;-6.670;2023-07-22T08:08:07;100201.50;;;16.09;100.00
55916;BME280;41826;53.246;-6.670;2023-07-22T08:10:32;100233.25;;;16.31;100.00
55916;BME280;41826;53.246;-6.670;2023-07-22T08:12:57;100247.94;;;16.33;100.00
55916;BME280;41826;53.246;-6.670;2023-07-22T08:15:23;100263.22;;;16.38;100.00
55916;BME280;41826;53.246;-6.670;2023-07-22T08:17:49;100265.38;;;16.49;100.00
55916;BME280;41826;53.246;-6.670;2023-07-22T08:20:14;100290.47;;;16.53;100.00
55916;BME280;41826;53.246;-6.670;2023-07-22T08:22:41;100298.88;;;16.63;100.00
55916;BME280;41826;53.246;-6.670;2023-07-22T08:25:07;100308.34;;;16.73;100.00
55916;BME280;41826;53.246;-6.670;2023-07-22T08:27:32;100293.84;;;16.68;100.00
55916;BME280;41826;53.246;-6.670;2023-07-22T08:30:00;100315.81;;;16.62;100.00
55916;BME280;41826;53.246;-6.670;2023-07-22T08:32:26;100317.50;;;16.70;100.00
55916;BME280;41826;53.246;-6.670;2023-07-22T08:34:51;100342.38;;;16.69;100.00
55916;BME280;41826;53.246;-6.670;2023-07-22T08:37:16;100330.34;;;16.66;100.00
55916;BME280;41826;53.246;-6.670;2023-07-22T08:39:42;100311.56;;;16.68;100.00
55916;BME280;41826;53.246;-6.670;2023-07-22T08:42:07;100314.72;;;16.78;100.00
55916;BME280;41826;53.246;-6.670;2023-07-22T08:44:35;100311.72;;;16.81;100.00
55916;BME280;41826;53.246;-6.670;2023-07-22T08:47:03;100311.31;;;16.84;100.00
55916;BME280;41826;53.246;-6.670;2023-07-22T08:49:30;100311.72;;;16.81;100.00
55916;BME280;41826;53.246;-6.670;2023-07-22T08:51:56;100321.59;;;16.94;100.00
55916;BME280;41826;53.246;-6.670;2023-07-22T08:54:23;100331.34;;;16.94;100.00
55916;BME280;41826;53.246;-6.670;2023-07-22T08:56:53;100331.75;;;16.90;100.00
55916;BME280;41826;53.246;-6.670;2023-07-22T08:59:19;100330.34;;;16.95;100.00
55916;BME280;41826;53.246;-6.670;2023-07-22T09:01:47;100339.19;;;17.02;100.00
55916;BME280;41826;53.246;-6.670;2023-07-22T09:04:13;100367.97;;;17.11;100.00
55916;BME280;41826;53.246;-6.670;2023-07-22T09:06:39;100378.63;;;17.18;100.00
55916;BME280;41826;53.246;-6.670;2023-07-22T09:09:05;100380.88;;;17.15;100.00
55916;BME280;41826;53.246;-6.670;2023-07-22T09:11:34;100373.16;;;17.20;100.00
55916;BME280;41826;53.246;-6.670;2023-07-22T09:13:59;100368.25;;;17.23;100.00
55916;BME280;41826;53.246;-6.670;2023-07-22T09:16:26;100363.69;;;17.10;100.00
55916;BME280;41826;53.246;-6.670;2023-07-22T09:18:55;100349.41;;;17.11;100.00
55916;BME280;41826;53.246;-6.670;2023-07-22T09:21:22;100327.34;;;17.04;100.00
55916;BME280;41826;53.246;-6.670;2023-07-22T09:23:48;100330.66;;;17.13;100.00
55916;BME280;41826;53.246;-6.670;2023-07-22T09:26:18;100332.69;;;17.11;100.00
55916;BME280;41826;53.246;-6.670;2023-07-22T09:28:54;100328.25;;;17.18;100.00
55916;BME280;41826;53.246;-6.670;2023-07-22T09:31:21;100343.63;;;17.29;100.00
55916;BME280;41826;53.246;-6.670;2023-07-22T09:33:47;100357.25;;;17.26;100.00
55916;BME280;41826;53.246;-6.670;2023-07-22T09:36:13;100347.09;;;17.37;100.00
55916;BME280;41826;53.246;-6.670;2023-07-22T09:38:39;100368.38;;;17.43;100.00
55916;BME280;41826;53.246;-6.670;2023-07-22T09:41:04;100367.13;;;17.39;100.00
55916;BME280;41826;53.246;-6.670;2023-07-22T09:43:30;100357.38;;;17.46;100.00
55916;BME280;41826;53.246;-6.670;2023-07-22T09:45:55;100347.56;;;17.47;100.00
55916;BME280;41826;53.246;-6.670;2023-07-22T09:48:21;100347.34;;;17.42;100.00
55916;BME280;41826;53.246;-6.670;2023-07-22T09:50:56;100342.25;;;17.40;100.00
55916;BME280;41826;53.246;-6.670;2023-07-22T09:53:22;100369.03;;;17.52;100.00
55916;BME280;41826;53.246;-6.670;2023-07-22T09:55:47;100391.97;;;17.66;100.00
55916;BME280;41826;53.246;-6.670;2023-07-22T09:58:15;100388.75;;;17.77;100.00
55916;BME280;41826;53.246;-6.670;2023-07-22T10:00:42;100384.09;;;17.80;100.00
55916;BME280;41826;53.246;-6.670;2023-07-22T10:03:10;100384.44;;;17.76;100.00
55916;BME280;41826;53.246;-6.670;2023-07-22T10:05:38;100385.66;;;17.74;100.00
55916;BME280;41826;53.246;-6.670;2023-07-22T10:08:06;100378.16;;;17.77;100.00
55916;BME280;41826;53.246;-6.670;2023-07-22T10:10:32;100380.66;;;17.92;100.00
55916;BME280;41826;53.246;-6.670;2023-07-22T10:12:59;100370.03;;;17.86;100.00
55916;BME280;41826;53.246;-6.670;2023-07-22T10:15:27;100364.25;;;17.75;100.00
55916;BME280;41826;53.246;-6.670;2023-07-22T10:17:53;100362.38;;;17.69;100.00
55916;BME280;41826;53.246;-6.670;2023-07-22T10:20:21;100349.72;;;17.71;100.00
55916;BME280;41826;53.246;-6.670;2023-07-22T10:22:48;100338.94;;;17.80;100.00
55916;BME280;41826;53.246;-6.670;2023-07-22T10:25:16;100337.13;;;17.80;100.00
55916;BME280;41826;53.246;-6.670;2023-07-22T10:27:42;100333.44;;;17.81;100.00
55916;BME280;41826;53.246;-6.670;2023-07-22T10:30:09;100322.75;;;17.74;100.00
55916;BME280;41826;53.246;-6.670;2023-07-22T10:32:39;100324.88;;;17.86;100.00
55916;BME280;41826;53.246;-6.670;2023-07-22T10:35:10;100323.84;;;17.87;100.00
55916;BME280;41826;53.246;-6.670;2023-07-22T10:37:37;100323.03;;;17.86;100.00
55916;BME280;41826;53.246;-6.670;2023-07-22T10:40:18;100329.41;;;18.05;100.00
55916;BME280;41826;53.246;-6.670;2023-07-22T10:42:54;100322.88;;;18.01;100.00
55916;BME280;41826;53.246;-6.670;2023-07-22T10:45:51;100331.47;;;18.03;100.00
55916;BME280;41826;53.246;-6.670;2023-07-22T10:48:17;100350.69;;;18.18;100.00
55916;BME280;41826;53.246;-6.670;2023-07-22T10:50:49;100354.97;;;18.19;100.00
55916;BME280;41826;53.246;-6.670;2023-07-22T11:04:06;100326.00;;;18.51;100.00
55916;BME280;41826;53.246;-6.670;2023-07-22T11:06:33;100340.31;;;18.63;100.00
55916;BME280;41826;53.246;-6.670;2023-07-22T11:09:01;100338.88;;;18.68;100.00
55916;BME280;41826;53.246;-6.670;2023-07-22T11:11:38;100343.38;;;18.74;100.00
55916;BME280;41826;53.246;-6.670;2023-07-22T11:14:24;100340.50;;;18.69;100.00
55916;BME280;41826;53.246;-6.670;2023-07-22T11:16:50;100335.22;;;18.75;100.00
55916;BME280;41826;53.246;-6.670;2023-07-22T11:19:20;100325.16;;;18.91;100.00
55916;BME280;41826;53.246;-6.670;2023-07-22T11:21:47;100313.03;;;19.15;100.00
55916;BME280;41826;53.246;-6.670;2023-07-22T11:24:14;100305.19;;;19.33;100.00
55916;BME280;41826;53.246;-6.670;2023-07-22T11:26:40;100302.81;;;19.12;100.00
55916;BME280;41826;53.246;-6.670;2023-07-22T11:29:08;100301.59;;;19.08;100.00
55916;BME280;41826;53.246;-6.670;2023-07-22T11:31:36;100314.25;;;19.19;100.00
55916;BME280;41826;53.246;-6.670;2023-07-22T11:34:09;100300.53;;;19.22;100.00
55916;BME280;41826;53.246;-6.670;2023-07-22T11:36:35;100294.41;;;19.15;100.00
55916;BME280;41826;53.246;-6.670;2023-07-22T11:39:07;100292.94;;;19.25;100.00
55916;BME280;41826;53.246;-6.670;2023-07-22T11:41:34;100292.31;;;19.30;100.00
55916;BME280;41826;53.246;-6.670;2023-07-22T11:44:01;100301.91;;;19.38;100.00
55916;BME280;41826;53.246;-6.670;2023-07-22T11:46:30;100313.66;;;19.62;100.00
55916;BME280;41826;53.246;-6.670;2023-07-22T11:48:55;100270.63;;;19.72;100.00
55916;BME280;41826;53.246;-6.670;2023-07-22T11:51:23;100276.72;;;19.85;100.00
55916;BME280;41826;53.246;-6.670;2023-07-22T11:53:50;100257.75;;;19.62;100.00
55916;BME280;41826;53.246;-6.670;2023-07-22T11:56:26;100260.72;;;19.85;100.00
55916;BME280;41826;53.246;-6.670;2023-07-22T11:58:54;100273.44;;;19.83;100.00
55916;BME280;41826;53.246;-6.670;2023-07-22T12:01:19;100290.03;;;19.85;100.00
55916;BME280;41826;53.246;-6.670;2023-07-22T12:03:45;100273.88;;;19.80;100.00
55916;BME280;41826;53.246;-6.670;2023-07-22T12:06:13;100262.94;;;19.50;100.00
55916;BME280;41826;53.246;-6.670;2023-07-22T12:08:48;100254.38;;;19.41;100.00
55916;BME280;41826;53.246;-6.670;2023-07-22T12:11:24;100253.53;;;19.47;100.00
55916;BME280;41826;53.246;-6.670;2023-07-22T12:14:09;100245.84;;;19.26;100.00
55916;BME280;41826;53.246;-6.670;2023-07-22T12:16:36;100243.00;;;19.21;100.00
55916;BME280;41826;53.246;-6.670;2023-07-22T12:19:03;100228.72;;;19.15;100.00
55916;BME280;41826;53.246;-6.670;2023-07-22T12:21:28;100213.47;;;19.29;100.00
55916;BME280;41826;53.246;-6.670;2023-07-22T12:23:54;100210.03;;;19.67;100.00
55916;BME280;41826;53.246;-6.670;2023-07-22T12:26:20;100203.69;;;19.68;100.00
55916;BME280;41826;53.246;-6.670;2023-07-22T12:28:45;100212.72;;;19.92;100.00
55916;BME280;41826;53.246;-6.670;2023-07-22T12:31:13;100220.50;;;20.19;100.00
55916;BME280;41826;53.246;-6.670;2023-07-22T12:33:39;100233.75;;;20.25;100.00
55916;BME280;41826;53.246;-6.670;2023-07-22T12:36:04;100230.25;;;20.50;100.00
55916;BME280;41826;53.246;-6.670;2023-07-22T12:38:30;100233.09;;;20.55;100.00